Time;durP1;ratioP1;P1;durP2;ratioP2;P2;SDS_P1;SDS_P2;PMS_P1;PMS_P2;Temp;Humidity;BMP_temperature;BMP_pressure;BME280_temperature;BME280_humidity;BME280_pressure;Samples;Min_cycle;Max_cycle;Signal;HPM_P1;HPM_P2
2022/01/01 00:02:03;;;;;;;123.45;70.07;;;10.20;99.90;;;;;;5006785;28;20117;-60
2022/01/01 00:04:29;;;;;;;129.68;67.90;;;10.20;99.90;;;;;;5035471;28;20041;-59
2022/01/01 00:06:54;;;;;;;118.93;60.58;;;10.20;99.90;;;;;;5020470;28;20044;-61
2022/01/01 00:09:21;;;;;;;116.78;58.25;;;10.20;99.90;;;;;;5028393;28;20103;-61
2022/01/01 00:11:47;;;;;;;125.55;64.68;;;10.20;99.90;;;;;;5042660;28;20037;-60
2022/01/01 00:14:13;;;;;;;121.30;71.18;;;10.20;99.90;;;;;;5039613;28;20060;-60
2022/01/01 00:16:38;;;;;;;132.45;73.47;;;10.20;99.90;;;;;;5030434;28;20052;-60
2022/01/01 00:19:04;;;;;;;120.03;64.22;;;10.20;99.90;;;;;;5006392;28;20480;-59
2022/01/01 00:21:30;;;;;;;120.53;65.68;;;10.20;99.90;;;;;;5008402;28;20044;-59
2022/01/01 00:23:56;;;;;;;111.43;60.70;;;10.20;99.90;;;;;;5043118;28;20361;-61
2022/01/01 00:26:21;;;;;;;116.30;60.58;;;10.20;99.90;;;;;;5041793;28;20060;-61
2022/01/01 00:28:47;;;;;;;126.18;61.63;;;10.20;99.90;;;;;;5044524;28;20025;-60
2022/01/01 00:31:13;;;;;;;115.20;58.60;;;10.20;99.90;;;;;;5049470;28;20037;-59
2022/01/01 00:33:39;;;;;;;112.55;60.08;;;10.20;99.90;;;;;;5016721;28;20033;-60
2022/01/01 00:36:05;;;;;;;95.35;49.38;;;10.20;99.90;;;;;;5034735;28;20040;-60
2022/01/01 00:38:31;;;;;;;114.18;54.03;;;10.20;99.90;;;;;;5016865;28;20048;-61
2022/01/01 00:40:57;;;;;;;92.15;48.45;;;10.20;99.90;;;;;;5021438;28;20075;-60
2022/01/01 00:43:24;;;;;;;118.90;62.08;;;10.20;99.90;;;;;;5034868;28;20037;-60
2022/01/01 00:45:50;;;;;;;134.35;71.43;;;10.20;99.90;;;;;;5048986;28;20390;-60
2022/01/01 00:48:15;;;;;;;121.22;64.75;;;10.20;99.90;;;;;;5033706;28;20040;-60
2022/01/01 00:50:41;;;;;;;101.70;50.03;;;10.20;99.90;;;;;;5039998;28;20237;-59
2022/01/01 00:53:07;;;;;;;101.88;51.25;;;10.20;99.90;;;;;;5034491;28;20033;-59
2022/01/01 00:55:34;;;;;;;114.25;56.08;;;10.10;99.90;;;;;;5022477;28;20056;-60
2022/01/01 00:58:00;;;;;;;111.10;65.50;;;10.10;99.90;;;;;;5040411;28;20045;-60
2022/01/01 01:00:26;;;;;;;77.88;36.55;;;10.10;99.90;;;;;;5022838;28;20621;-60
2022/01/01 01:02:52;;;;;;;79.00;37.70;;;10.10;99.90;;;;;;5025511;28;20029;-59
2022/01/01 01:05:17;;;;;;;74.50;33.47;;;10.00;99.90;;;;;;5042031;28;20484;-59
2022/01/01 01:07:44;;;;;;;75.35;32.28;;;10.00;99.90;;;;;;5008580;28;20033;-59
2022/01/01 01:10:12;;;;;;;64.47;23.40;;;10.00;99.90;;;;;;5048777;28;20033;-59
2022/01/01 01:12:43;;;;;;;85.90;42.63;;;10.00;99.90;;;;;;5034655;28;20050;-59
2022/01/01 01:15:16;;;;;;;73.32;26.70;;;10.00;99.90;;;;;;5008625;28;20041;-61
2022/01/01 01:17:43;;;;;;;74.13;33.53;;;10.00;99.90;;;;;;5023103;28;20116;-60
2022/01/01 01:20:09;;;;;;;71.85;29.40;;;9.90;99.90;;;;;;5001447;28;20064;-59
2022/01/01 01:22:35;;;;;;;70.97;29.45;;;9.90;99.90;;;;;;5012264;28;20741;-60
2022/01/01 01:25:01;;;;;;;69.20;26.33;;;9.90;99.90;;;;;;5029381;28;20160;-60
2022/01/01 01:27:28;;;;;;;69.05;26.90;;;9.80;99.90;;;;;;5020426;28;20044;-59
2022/01/01 01:29:56;;;;;;;72.22;38.85;;;9.80;99.90;;;;;;5023385;28;20616;-58
2022/01/01 01:32:21;;;;;;;71.35;30.60;;;9.80;99.90;;;;;;5039638;28;20098;-59
2022/01/01 01:34:47;;;;;;;69.85;26.50;;;9.80;99.90;;;;;;5019241;28;20037;-60
2022/01/01 01:37:13;;;;;;;84.72;41.03;;;9.70;99.90;;;;;;5030040;28;20490;-60
2022/01/01 01:39:38;;;;;;;100.97;41.72;;;9.70;99.90;;;;;;5037992;28;20105;-60
2022/01/01 01:42:04;;;;;;;67.95;23.85;;;9.70;99.90;;;;;;5039329;28;20495;-59
2022/01/01 01:44:41;;;;;;;61.25;23.98;;;9.70;99.90;;;;;;5028426;28;20116;-60
2022/01/01 01:47:14;;;;;;;72.82;27.27;;;9.70;99.90;;;;;;5011771;28;20049;-59
2022/01/01 01:49:41;;;;;;;107.57;47.45;;;9.70;99.90;;;;;;5024467;28;20060;-59
2022/01/01 01:52:08;;;;;;;114.22;50.22;;;9.70;99.90;;;;;;5024592;28;20098;-59
2022/01/01 01:54:34;;;;;;;85.20;37.55;;;9.70;99.90;;;;;;5033934;28;20055;-59
2022/01/01 01:57:00;;;;;;;91.22;39.00;;;9.60;99.90;;;;;;5017545;28;20041;-59
2022/01/01 01:59:26;;;;;;;102.15;47.25;;;9.70;99.90;;;;;;5009494;28;20045;-58
2022/01/01 02:01:52;;;;;;;107.18;47.58;;;9.60;99.90;;;;;;5047724;22;20052;31
2022/01/01 02:04:18;;;;;;;110.22;49.60;;;9.60;99.90;;;;;;5033653;28;20514;-59
2022/01/01 02:06:44;;;;;;;117.60;52.05;;;9.70;99.90;;;;;;5039356;28;20073;-60
2022/01/01 02:09:11;;;;;;;111.55;51.42;;;9.60;99.90;;;;;;5054183;28;20033;-59
2022/01/01 02:11:38;;;;;;;117.93;56.50;;;9.70;99.90;;;;;;5030727;28;20093;-59
2022/01/01 02:14:14;;;;;;;124.90;57.90;;;9.70;99.90;;;;;;5026413;28;20510;-60
2022/01/01 02:19:22;;;;;;;133.02;66.80;;;9.60;99.90;;;;;;5035200;28;20097;-60
2022/01/01 02:21:48;;;;;;;139.13;74.78;;;9.60;99.90;;;;;;5060306;28;20068;-60
2022/01/01 02:24:14;;;;;;;133.23;60.50;;;9.60;99.90;;;;;;5014671;28;20545;-60
2022/01/01 02:26:40;;;;;;;130.85;68.70;;;9.60;99.90;;;;;;5043727;28;20037;-60
2022/01/01 02:29:06;;;;;;;153.35;78.20;;;9.60;99.90;;;;;;5028483;28;20215;-58
2022/01/01 02:31:33;;;;;;;131.05;65.97;;;9.60;99.90;;;;;;5044379;28;20045;-60
2022/01/01 02:34:04;;;;;;;122.97;57.45;;;9.60;99.90;;;;;;5030912;28;20048;-59
2022/01/01 02:36:39;;;;;;;117.57;52.95;;;9.50;99.90;;;;;;5039347;28;20032;-58
2022/01/01 02:39:17;;;;;;;127.20;64.65;;;9.60;99.90;;;;;;5040246;28;20044;-60
2022/01/01 02:41:44;;;;;;;124.50;61.38;;;9.50;99.90;;;;;;5047046;28;20056;-59
2022/01/01 02:44:10;;;;;;;158.82;79.40;;;9.50;99.90;;;;;;5046510;28;20043;-60
2022/01/01 02:46:36;;;;;;;131.38;69.15;;;9.60;99.90;;;;;;5033993;28;20387;-60
2022/01/01 02:49:03;;;;;;;106.28;51.05;;;9.50;99.90;;;;;;5032580;28;20036;-59
2022/01/01 02:51:29;;;;;;;117.00;55.92;;;9.50;99.90;;;;;;5052287;28;20083;-59
2022/01/01 02:53:55;;;;;;;111.00;50.92;;;9.50;99.90;;;;;;5014994;28;20044;-58
2022/01/01 02:56:21;;;;;;;107.80;47.30;;;9.50;99.90;;;;;;5034959;28;20649;-60
2022/01/01 02:58:47;;;;;;;121.22;51.20;;;9.50;99.90;;;;;;5044626;28;20303;-60
2022/01/01 03:01:12;;;;;;;111.65;47.97;;;9.40;99.90;;;;;;5038555;28;20151;-59
2022/01/01 03:03:38;;;;;;;115.00;45.83;;;9.40;99.90;;;;;;5048423;28;20040;-60
2022/01/01 03:06:04;;;;;;;114.80;41.08;;;9.40;99.90;;;;;;5044553;28;20045;-59
2022/01/01 03:08:30;;;;;;;90.45;38.90;;;9.40;99.90;;;;;;5042409;28;20040;-59
2022/01/01 03:10:56;;;;;;;96.47;39.50;;;9.40;99.90;;;;;;5039817;28;20328;-60
2022/01/01 03:13:22;;;;;;;90.15;38.38;;;9.40;99.90;;;;;;5038068;28;20055;-59
2022/01/01 03:15:48;;;;;;;90.78;38.20;;;9.40;99.90;;;;;;5020090;28;20040;-60
2022/01/01 03:18:13;;;;;;;109.22;42.47;;;9.40;99.90;;;;;;5050218;28;20905;-58
2022/01/01 03:20:40;;;;;;;107.35;43.17;;;9.40;99.90;;;;;;5060836;28;20024;-58
2022/01/01 03:23:05;;;;;;;121.93;48.13;;;9.40;99.90;;;;;;5038865;28;20124;-61
2022/01/01 03:25:31;;;;;;;116.45;49.15;;;9.40;99.90;;;;;;5051727;28;20040;-58
2022/01/01 03:27:57;;;;;;;128.30;49.83;;;9.40;99.90;;;;;;5052110;28;20029;-58
2022/01/01 03:30:23;;;;;;;119.07;49.85;;;9.40;99.90;;;;;;5029488;28;20040;-60
2022/01/01 03:32:48;;;;;;;116.07;50.15;;;9.50;99.90;;;;;;5049111;28;20047;-60
2022/01/01 03:35:14;;;;;;;129.45;51.88;;;9.40;99.90;;;;;;5038844;28;20037;-58
2022/01/01 03:37:40;;;;;;;127.43;50.55;;;9.40;99.90;;;;;;5046409;28;20055;-59
2022/01/01 03:40:07;;;;;;;133.13;49.58;;;9.50;99.90;;;;;;5041278;28;20037;-60
2022/01/01 03:42:33;;;;;;;112.65;46.92;;;9.50;99.90;;;;;;5060516;28;20036;-60
2022/01/01 03:44:58;;;;;;;129.18;49.60;;;9.50;99.90;;;;;;5033450;28;20049;-59
2022/01/01 03:47:24;;;;;;;124.03;48.78;;;9.50;99.90;;;;;;5057059;28;20035;-58
2022/01/01 03:49:50;;;;;;;135.93;47.47;;;9.50;99.90;;;;;;5024748;28;20169;-60
2022/01/01 03:52:16;;;;;;;128.18;46.30;;;9.50;99.90;;;;;;5035615;28;20753;-59
2022/01/01 03:54:42;;;;;;;128.63;42.85;;;9.50;99.90;;;;;;5041391;28;20044;-60
2022/01/01 03:57:07;;;;;;;112.82;43.60;;;9.50;99.90;;;;;;5062605;28;20459;-59
2022/01/01 03:59:34;;;;;;;114.80;42.83;;;9.50;99.90;;;;;;5057411;28;20131;-59
2022/01/01 04:01:59;;;;;;;113.43;40.10;;;9.60;99.90;;;;;;5041324;28;20578;-60
2022/01/01 04:04:26;;;;;;;105.00;39.13;;;9.60;99.90;;;;;;5036893;28;20131;-59
2022/01/01 04:06:53;;;;;;;117.20;38.90;;;9.60;99.90;;;;;;5045652;28;20201;-60
2022/01/01 04:09:19;;;;;;;116.18;39.58;;;9.60;99.90;;;;;;5034758;28;20032;-58
2022/01/01 04:11:45;;;;;;;111.40;39.03;;;9.60;99.90;;;;;;5022071;28;20498;-60
2022/01/01 04:14:13;;;;;;;106.05;38.92;;;9.60;99.90;;;;;;5041159;28;20072;-60
2022/01/01 04:16:39;;;;;;;116.97;39.88;;;9.70;99.90;;;;;;5040907;28;20072;-60
2022/01/01 04:19:05;;;;;;;116.85;39.00;;;9.70;99.90;;;;;;5026342;28;20044;-60
2022/01/01 04:21:31;;;;;;;111.97;39.58;;;9.70;99.90;;;;;;5036307;28;20104;-60
2022/01/01 04:23:57;;;;;;;115.97;41.83;;;9.70;99.90;;;;;;5038647;28;20040;-60
2022/01/01 04:26:24;;;;;;;124.05;45.88;;;9.70;99.90;;;;;;5042209;28;20490;-58
2022/01/01 04:28:50;;;;;;;110.65;45.75;;;9.80;99.90;;;;;;5040653;28;20041;-60
2022/01/01 04:31:16;;;;;;;121.28;48.95;;;9.70;99.90;;;;;;5039960;28;20837;-59
2022/01/01 04:33:42;;;;;;;123.85;50.40;;;9.70;99.90;;;;;;5039760;28;20044;-59
2022/01/01 04:36:08;;;;;;;121.78;52.65;;;9.70;99.90;;;;;;5040310;28;20283;-60
2022/01/01 04:38:38;;;;;;;134.63;54.30;;;9.70;99.90;;;;;;5036255;28;20324;-60
2022/01/01 04:41:09;;;;;;;129.55;53.35;;;9.70;99.90;;;;;;5048234;28;20175;-60
2022/01/01 04:43:36;;;;;;;138.52;56.45;;;9.70;99.90;;;;;;5041491;28;20036;-59
2022/01/01 04:46:01;;;;;;;144.95;60.10;;;9.60;99.90;;;;;;5055086;28;20043;-60
2022/01/01 04:48:27;;;;;;;144.50;63.60;;;9.70;99.90;;;;;;5039694;28;20028;-60
2022/01/01 04:50:53;;;;;;;150.35;68.00;;;9.70;99.90;;;;;;5039181;28;20177;-59
2022/01/01 04:53:19;;;;;;;167.48;77.03;;;9.70;99.90;;;;;;5043943;28;20048;-58
2022/01/01 04:55:50;;;;;;;175.63;79.82;;;9.70;99.90;;;;;;5012900;28;20048;-60
2022/01/01 04:58:16;;;;;;;165.73;81.05;;;9.60;99.90;;;;;;5053829;28;20172;-61
2022/01/01 05:00:42;;;;;;;178.18;83.90;;;9.70;99.90;;;;;;5047243;28;20033;-59
2022/01/01 05:03:08;;;;;;;206.77;88.07;;;9.60;99.90;;;;;;5036718;28;20045;-60
2022/01/01 05:05:34;;;;;;;185.65;78.75;;;9.60;99.90;;;;;;5035788;28;20051;-60
2022/01/01 05:07:59;;;;;;;207.23;77.82;;;9.70;99.90;;;;;;5019500;28;20123;-60
2022/01/01 05:10:25;;;;;;;192.65;79.63;;;9.70;99.90;;;;;;5045603;28;20040;-57
2022/01/01 05:12:51;;;;;;;176.95;72.13;;;9.70;99.90;;;;;;5052229;28;20236;-60
2022/01/01 05:15:17;;;;;;;187.05;74.75;;;9.70;99.90;;;;;;5041617;28;20044;-60
2022/01/01 05:17:43;;;;;;;184.05;69.03;;;9.70;99.90;;;;;;5042870;28;20585;-59
2022/01/01 05:20:10;;;;;;;180.27;65.32;;;9.80;99.90;;;;;;5036738;28;20041;-61
2022/01/01 05:22:35;;;;;;;166.35;60.47;;;9.80;99.90;;;;;;5040171;28;20092;-60
2022/01/01 05:25:01;;;;;;;144.95;55.40;;;9.80;99.90;;;;;;5034523;28;20036;-60
2022/01/01 05:27:28;;;;;;;148.60;50.25;;;9.80;99.90;;;;;;5035115;28;20116;-60
2022/01/01 05:29:54;;;;;;;142.25;44.00;;;9.90;99.90;;;;;;5038796;28;20033;-60
2022/01/01 05:32:20;;;;;;;116.68;37.47;;;9.90;99.90;;;;;;5035718;28;20072;-60
2022/01/01 05:34:45;;;;;;;114.20;36.83;;;10.00;99.90;;;;;;5057238;28;20087;-60
2022/01/01 05:37:11;;;;;;;107.35;33.17;;;10.10;99.90;;;;;;5047941;28;20547;-60
2022/01/01 05:39:37;;;;;;;95.88;30.90;;;10.10;99.90;;;;;;5059927;28;20040;-61
2022/01/01 05:42:04;;;;;;;101.38;29.85;;;10.20;99.90;;;;;;5057198;28;20057;-58
2022/01/01 05:44:29;;;;;;;104.57;31.08;;;10.20;99.90;;;;;;5036775;28;20083;-61
2022/01/01 05:46:55;;;;;;;105.05;31.05;;;10.30;99.90;;;;;;5040108;28;20136;-59
2022/01/01 05:49:21;;;;;;;108.70;32.22;;;10.30;99.90;;;;;;5038082;28;20171;-60
2022/01/01 05:51:47;;;;;;;111.22;31.05;;;10.30;99.90;;;;;;5058195;28;20073;-59
2022/01/01 05:54:13;;;;;;;105.90;30.75;;;10.40;99.90;;;;;;5050477;28;20044;-59
2022/01/01 05:56:39;;;;;;;93.63;28.67;;;10.40;99.90;;;;;;5030992;28;20040;-59
2022/01/01 05:59:04;;;;;;;84.22;28.35;;;10.40;99.90;;;;;;5052604;28;20534;-61
2022/01/01 06:01:30;;;;;;;86.75;26.95;;;10.40;99.90;;;;;;5027083;28;20040;-59
2022/01/01 06:03:56;;;;;;;90.47;27.15;;;10.50;99.90;;;;;;5041469;28;20387;-61
2022/01/01 06:06:22;;;;;;;73.38;24.13;;;10.50;99.90;;;;;;4989142;28;20036;-60
2022/01/01 06:08:48;;;;;;;68.03;23.17;;;10.50;99.90;;;;;;5026398;28;20502;-60
2022/01/01 06:11:13;;;;;;;77.90;22.55;;;10.60;99.90;;;;;;5019093;28;20071;-60
2022/01/01 06:13:39;;;;;;;67.45;20.48;;;10.60;99.90;;;;;;5039510;28;20091;-59
2022/01/01 06:16:05;;;;;;;64.47;19.25;;;10.60;99.90;;;;;;5039276;28;20488;-60
2022/01/01 06:18:31;;;;;;;64.97;20.25;;;10.70;99.90;;;;;;5038124;28;20044;-61
2022/01/01 06:20:57;;;;;;;54.22;17.65;;;10.70;99.90;;;;;;5033771;28;20044;-60
2022/01/01 06:23:23;;;;;;;51.15;18.15;;;10.70;99.90;;;;;;5034979;28;20040;-60
2022/01/01 06:25:49;;;;;;;53.65;18.67;;;10.70;99.90;;;;;;5020811;28;20131;-60
2022/01/01 06:28:14;;;;;;;52.58;18.13;;;10.70;99.90;;;;;;5034367;28;20064;-59
2022/01/01 06:30:40;;;;;;;61.42;17.77;;;10.70;99.90;;;;;;5029424;28;20468;-60
2022/01/01 06:33:11;;;;;;;55.15;18.25;;;10.80;99.90;;;;;;5033215;28;20040;-59
2022/01/01 06:35:45;;;;;;;56.00;19.88;;;10.80;99.90;;;;;;5052279;28;20048;-59
2022/01/01 06:38:12;;;;;;;62.35;19.90;;;10.80;99.90;;;;;;5032872;28;20052;-59
2022/01/01 06:40:41;;;;;;;61.60;19.58;;;10.80;99.90;;;;;;5019991;28;20039;-59
2022/01/01 06:43:08;;;;;;;64.63;21.48;;;10.70;99.90;;;;;;5053756;28;20045;-60
2022/01/01 06:45:34;;;;;;;61.92;21.17;;;10.70;99.90;;;;;;5046656;28;20059;-60
2022/01/01 06:48:00;;;;;;;72.60;23.00;;;10.70;99.90;;;;;;5032495;28;20056;-60
2022/01/01 06:50:26;;;;;;;65.00;22.17;;;10.70;99.90;;;;;;5020779;28;20395;-61
2022/01/01 06:52:52;;;;;;;67.53;22.30;;;10.70;99.90;;;;;;5036723;28;20042;-59
2022/01/01 06:55:18;;;;;;;64.38;21.67;;;10.70;99.90;;;;;;5018844;28;20675;-60
2022/01/01 06:57:44;;;;;;;66.80;24.27;;;10.70;99.90;;;;;;5004233;28;20048;-59
2022/01/01 07:00:12;;;;;;;63.05;23.33;;;10.70;99.90;;;;;;4997529;28;20147;-61
2022/01/01 07:02:43;;;;;;;76.57;27.63;;;10.70;99.90;;;;;;5024450;28;20041;-59
2022/01/01 07:05:10;;;;;;;76.93;28.00;;;10.70;99.90;;;;;;5031802;28;20040;-57
2022/01/01 07:07:36;;;;;;;77.93;28.75;;;10.70;99.90;;;;;;5020600;28;20036;-57
2022/01/01 07:10:03;;;;;;;79.18;30.73;;;10.70;99.90;;;;;;5040732;28;20041;-59
2022/01/01 07:12:29;;;;;;;84.55;31.10;;;10.70;99.90;;;;;;5038673;28;20044;-58
2022/01/01 07:14:55;;;;;;;87.53;33.03;;;10.70;99.90;;;;;;5038389;28;20040;-59
2022/01/01 07:17:20;;;;;;;97.65;31.30;;;10.80;99.90;;;;;;5033156;28;20539;-57
2022/01/01 07:19:46;;;;;;;88.35;32.05;;;10.70;99.90;;;;;;5033980;28;20123;-59
2022/01/01 07:22:12;;;;;;;89.03;32.70;;;10.70;99.90;;;;;;5029514;28;20060;-58
2022/01/01 07:24:37;;;;;;;81.32;33.88;;;10.70;99.90;;;;;;5035864;28;20044;-59
2022/01/01 07:27:03;;;;;;;84.10;33.67;;;10.70;99.90;;;;;;5028039;28;20075;-59
2022/01/01 07:29:29;;;;;;;85.13;32.70;;;10.80;99.90;;;;;;5040143;28;20033;-59
2022/01/01 07:31:55;;;;;;;87.97;34.55;;;10.90;99.90;;;;;;5033980;28;20047;-59
2022/01/01 07:34:21;;;;;;;73.65;34.03;;;10.80;99.90;;;;;;5047360;28;20044;-59
2022/01/01 07:36:47;;;;;;;91.57;34.95;;;10.80;99.90;;;;;;5056438;28;20036;-60
2022/01/01 07:39:13;;;;;;;79.60;33.25;;;10.80;99.90;;;;;;5052859;28;20044;-59
2022/01/01 07:41:40;;;;;;;80.03;33.70;;;10.80;99.90;;;;;;5014696;28;20064;-57
2022/01/01 07:44:07;;;;;;;91.78;35.03;;;10.80;99.90;;;;;;5040759;28;20040;-59
2022/01/01 07:46:33;;;;;;;82.63;35.00;;;10.80;99.90;;;;;;5040331;28;20311;-59
2022/01/01 07:48:58;;;;;;;83.70;35.75;;;10.80;99.90;;;;;;5021945;28;20048;-59
2022/01/01 07:51:24;;;;;;;73.60;35.53;;;10.80;99.90;;;;;;5053699;28;20040;-58
2022/01/01 07:53:50;;;;;;;86.78;34.85;;;10.80;99.90;;;;;;5044371;28;20171;-60
2022/01/01 07:56:16;;;;;;;76.70;33.63;;;10.90;99.90;;;;;;5035617;28;20094;-60
2022/01/01 07:58:42;;;;;;;78.43;33.72;;;10.90;99.90;;;;;;5035894;28;20589;-60
2022/01/01 08:01:07;;;;;;;76.05;34.95;;;10.90;99.90;;;;;;5032100;28;20421;-60
2022/01/01 08:03:33;;;;;;;84.13;36.40;;;10.90;99.90;;;;;;5066061;22;20542;-64
2022/01/01 08:05:59;;;;;;;79.05;35.05;;;10.90;99.90;;;;;;5079021;28;20043;-64
2022/01/01 08:08:25;;;;;;;82.90;34.58;;;11.00;99.90;;;;;;5075921;28;20038;-65
2022/01/01 08:10:50;;;;;;;80.25;35.97;;;11.00;99.90;;;;;;5060680;28;20075;-64
2022/01/01 08:13:23;;;;;;;78.07;34.65;;;11.00;99.90;;;;;;5076378;28;20044;-63
2022/01/01 08:15:50;;;;;;;84.45;33.50;;;11.00;99.90;;;;;;5068406;28;20052;-64
2022/01/01 08:18:16;;;;;;;72.28;32.80;;;11.10;99.90;;;;;;5075925;28;20470;-65
2022/01/01 08:20:42;;;;;;;70.78;32.92;;;11.10;99.90;;;;;;5072057;28;20498;-64
2022/01/01 08:23:09;;;;;;;75.70;33.72;;;11.10;99.90;;;;;;5068710;28;20047;-64
2022/01/01 08:25:35;;;;;;;71.72;32.53;;;11.10;99.90;;;;;;5063562;28;20072;-64
2022/01/01 08:28:01;;;;;;;63.25;30.70;;;11.20;99.90;;;;;;5072449;28;20106;-64
2022/01/01 08:30:27;;;;;;;70.07;31.13;;;11.20;99.90;;;;;;5069189;28;20523;-65
2022/01/01 08:32:52;;;;;;;60.38;29.70;;;11.20;99.90;;;;;;5052781;28;20044;-64
2022/01/01 08:35:18;;;;;;;63.55;30.77;;;11.20;99.90;;;;;;5066177;28;20037;-64
2022/01/01 08:37:44;;;;;;;69.70;32.28;;;11.20;99.90;;;;;;5056675;28;20039;-63
2022/01/01 08:40:10;;;;;;;69.07;28.70;;;11.20;99.90;;;;;;5068382;28;20064;-63
2022/01/01 08:42:36;;;;;;;66.85;30.90;;;11.20;99.90;;;;;;5053678;28;20051;-64
2022/01/01 08:45:03;;;;;;;66.00;30.13;;;11.20;99.90;;;;;;5065463;28;20051;-63
2022/01/01 08:47:28;;;;;;;59.67;28.85;;;11.20;99.90;;;;;;5076600;28;20123;-63
2022/01/01 08:49:55;;;;;;;66.63;29.25;;;11.20;99.90;;;;;;5062516;28;20194;-64
2022/01/01 08:52:23;;;;;;;59.95;29.15;;;11.20;99.90;;;;;;5068344;28;20440;-64
2022/01/01 08:54:51;;;;;;;67.47;29.27;;;11.20;99.90;;;;;;5073394;28;20050;-64
2022/01/01 08:57:17;;;;;;;62.03;29.67;;;11.30;99.90;;;;;;5068055;28;20124;-65
2022/01/01 08:59:43;;;;;;;61.85;28.58;;;11.30;99.90;;;;;;5056100;28;20480;-65
2022/01/01 09:02:09;;;;;;;61.20;30.23;;;11.30;99.90;;;;;;5061655;28;20047;-64
2022/01/01 09:04:35;;;;;;;61.80;29.88;;;11.30;99.90;;;;;;5075072;28;20231;-64
2022/01/01 09:07:00;;;;;;;61.63;28.95;;;11.30;99.90;;;;;;5056791;28;20467;-64
2022/01/01 09:09:26;;;;;;;61.90;28.98;;;11.40;99.90;;;;;;5072768;28;20036;-64
2022/01/01 09:11:52;;;;;;;61.30;28.40;;;11.30;99.90;;;;;;5063383;28;20048;-64
2022/01/01 09:14:17;;;;;;;52.63;25.48;;;11.30;99.90;;;;;;5071254;28;20044;-65
2022/01/01 09:16:43;;;;;;;49.05;24.88;;;11.40;99.90;;;;;;5074649;28;20322;-65
2022/01/01 09:19:09;;;;;;;52.78;26.48;;;11.40;99.90;;;;;;5056902;28;20468;-65
2022/01/01 09:21:34;;;;;;;53.55;25.05;;;11.40;99.90;;;;;;5069432;28;20048;-65
2022/01/01 09:24:00;;;;;;;47.17;24.60;;;11.40;99.90;;;;;;5060792;28;20488;-64
2022/01/01 09:26:26;;;;;;;55.42;23.60;;;11.40;99.90;;;;;;5062228;28;20032;-64
2022/01/01 09:28:52;;;;;;;55.55;23.63;;;11.40;99.90;;;;;;5070416;28;20036;-64
2022/01/01 09:31:18;;;;;;;46.80;23.75;;;11.40;99.90;;;;;;5064741;28;20041;-64
2022/01/01 09:33:44;;;;;;;50.45;23.48;;;11.50;99.90;;;;;;5071184;28;20048;-64
2022/01/01 09:36:10;;;;;;;44.35;21.73;;;11.50;99.90;;;;;;5052036;28;20441;-64
2022/01/01 09:38:36;;;;;;;45.03;23.58;;;11.50;99.90;;;;;;5060365;28;20036;-64
2022/01/01 09:41:03;;;;;;;48.85;22.73;;;11.50;99.90;;;;;;5072988;28;20054;-64
2022/01/01 09:43:31;;;;;;;45.13;21.95;;;11.50;99.90;;;;;;5070422;28;20051;-64
2022/01/01 09:45:58;;;;;;;40.75;19.92;;;11.50;99.90;;;;;;5082305;28;20042;-65
2022/01/01 09:48:25;;;;;;;42.42;20.80;;;11.60;99.90;;;;;;5054532;28;20428;-65
2022/01/01 09:50:54;;;;;;;42.78;20.67;;;11.50;99.90;;;;;;5066067;28;20585;-65
2022/01/01 09:53:23;;;;;;;34.28;18.23;;;11.60;99.90;;;;;;5066894;28;20064;-63
2022/01/01 09:55:50;;;;;;;38.75;19.38;;;11.50;99.90;;;;;;5064353;28;20449;-64
2022/01/01 09:58:15;;;;;;;36.70;17.15;;;11.60;99.90;;;;;;5059525;28;20105;-63
2022/01/01 10:00:41;;;;;;;45.50;18.75;;;11.60;99.90;;;;;;5058486;28;20568;-64
2022/01/01 10:03:12;;;;;;;34.53;16.10;;;11.60;99.90;;;;;;5050692;28;20398;-63
2022/01/01 10:05:57;;;;;;;36.67;16.60;;;11.60;99.90;;;;;;5068042;28;20395;-65
2022/01/01 10:08:26;;;;;;;33.97;16.27;;;11.70;99.90;;;;;;5072276;28;20411;-65
2022/01/01 10:10:53;;;;;;;33.60;15.18;;;11.60;99.90;;;;;;5064811;28;20044;-65
2022/01/01 10:13:25;;;;;;;31.45;15.57;;;11.60;99.90;;;;;;5077363;28;20051;-65
2022/01/01 10:15:54;;;;;;;30.70;14.77;;;11.60;99.90;;;;;;5074509;28;20036;-64
2022/01/01 10:18:25;;;;;;;33.65;14.75;;;11.60;99.90;;;;;;5067861;28;20043;-64
2022/01/01 10:21:00;;;;;;;31.70;14.80;;;11.70;99.90;;;;;;5071741;28;20245;-63
2022/01/01 10:23:29;;;;;;;26.83;13.23;;;11.70;99.90;;;;;;5063259;28;20411;-64
2022/01/01 10:28:54;;;;;;;23.98;11.82;;;11.70;99.90;;;;;;5064756;28;21526;-64
2022/01/01 10:31:20;;;;;;;27.63;12.57;;;11.70;99.90;;;;;;5063864;28;20423;-63
2022/01/01 10:33:46;;;;;;;21.67;11.70;;;11.70;99.90;;;;;;5066617;28;20032;-65
2022/01/01 10:36:14;;;;;;;22.90;12.27;;;11.70;99.90;;;;;;5053692;28;20048;-64
2022/01/01 10:38:40;;;;;;;27.30;12.05;;;11.80;99.90;;;;;;5051811;28;20489;-63
2022/01/01 10:41:08;;;;;;;24.45;11.57;;;11.90;99.90;;;;;;5057119;28;20049;-64
2022/01/01 10:43:39;;;;;;;28.73;11.40;;;11.90;99.90;;;;;;5062118;28;20051;-64
2022/01/01 10:46:11;;;;;;;25.48;12.05;;;11.90;99.90;;;;;;5055702;28;20140;-64
2022/01/01 10:51:02;;;;;;;33.17;14.98;;;11.90;99.90;;;;;;5062605;28;20041;-63
2022/01/01 10:53:29;;;;;;;28.48;11.40;;;12.00;99.90;;;;;;5048827;28;20041;-63
2022/01/01 10:56:00;;;;;;;20.70;11.02;;;12.00;99.90;;;;;;5061179;28;20089;-64
2022/01/01 10:58:32;;;;;;;23.27;11.50;;;12.00;99.90;;;;;;5065677;28;20040;-64
2022/01/01 11:01:05;;;;;;;22.67;10.35;;;12.00;99.90;;;;;;5074781;28;20028;-63
2022/01/01 11:03:42;;;;;;;31.92;11.88;;;12.10;99.90;;;;;;5072682;28;20509;-64
2022/01/01 11:06:13;;;;;;;21.13;10.75;;;12.10;99.90;;;;;;5046439;28;20345;-63
2022/01/01 11:08:41;;;;;;;22.75;10.95;;;12.10;99.90;;;;;;5074304;28;20040;-65
2022/01/01 11:11:08;;;;;;;27.88;10.32;;;12.10;99.90;;;;;;5053353;28;20046;-63
2022/01/01 11:13:34;;;;;;;27.00;11.10;;;12.20;99.90;;;;;;5033541;28;20478;-63
2022/01/01 11:16:02;;;;;;;27.00;11.75;;;12.20;99.90;;;;;;5054748;28;20105;-63
2022/01/01 11:18:28;;;;;;;27.17;11.55;;;12.20;99.90;;;;;;5062031;28;20103;-64
2022/01/01 11:20:58;;;;;;;24.40;12.57;;;12.20;99.90;;;;;;5067294;28;20055;-63
2022/01/01 11:23:26;;;;;;;27.80;13.43;;;12.30;99.90;;;;;;5091383;28;20760;-63
2022/01/01 11:25:52;;;;;;;20.65;12.07;;;12.30;99.90;;;;;;5072283;28;20051;-65
2022/01/01 11:28:20;;;;;;;23.85;12.95;;;12.30;99.90;;;;;;5067207;28;20067;-64
2022/01/01 11:30:48;;;;;;;28.67;12.45;;;12.30;99.90;;;;;;5054192;28;20339;-65
2022/01/01 11:33:17;;;;;;;22.20;12.23;;;12.30;99.90;;;;;;5073305;28;20052;-65
2022/01/01 11:36:03;;;;;;;25.40;11.98;;;12.30;99.90;;;;;;5075593;28;20040;-64
2022/01/01 11:38:35;;;;;;;26.58;12.65;;;12.30;99.90;;;;;;5054905;28;20478;-63
2022/01/01 11:41:06;;;;;;;27.30;13.75;;;12.30;99.90;;;;;;5056044;28;20404;-64
2022/01/01 11:43:36;;;;;;;22.52;11.85;;;12.30;99.90;;;;;;5054143;28;20040;-65
2022/01/01 11:46:20;;;;;;;26.92;13.35;;;12.30;99.90;;;;;;5066697;28;20491;-64
2022/01/01 11:48:56;;;;;;;23.20;12.90;;;12.30;99.90;;;;;;5064442;28;20055;-63
2022/01/01 11:51:48;;;;;;;24.13;11.68;;;12.30;99.90;;;;;;5061893;28;20375;-64
2022/01/01 11:54:14;;;;;;;24.90;11.65;;;12.30;99.90;;;;;;5082008;28;20040;-64
2022/01/01 11:57:18;;;;;;;19.85;11.07;;;12.20;99.90;;;;;;5076255;28;20659;-64
2022/01/01 12:00:00;;;;;;;22.55;10.82;;;12.30;99.90;;;;;;5075799;28;20094;-63
2022/01/01 12:02:26;;;;;;;21.48;10.98;;;12.30;99.90;;;;;;5077764;28;20055;-63
2022/01/01 12:05:07;;;;;;;22.65;11.52;;;12.30;99.90;;;;;;5054852;28;21037;-65
2022/01/01 12:07:52;;;;;;;21.85;11.65;;;12.30;99.90;;;;;;5075113;28;20360;-64
2022/01/01 12:10:19;;;;;;;21.42;11.00;;;12.30;99.90;;;;;;5062585;28;20032;-64
2022/01/01 12:12:59;;;;;;;18.75;10.48;;;12.30;99.90;;;;;;5059917;28;20044;-64
2022/01/01 12:15:25;;;;;;;17.02;9.13;;;12.30;99.90;;;;;;5063952;28;20039;-64
2022/01/01 12:18:00;;;;;;;20.13;9.80;;;12.30;99.90;;;;;;5055571;28;20028;-64
2022/01/01 12:20:50;;;;;;;18.80;9.68;;;12.30;99.90;;;;;;5040959;28;20056;-64
2022/01/01 12:23:25;;;;;;;15.32;8.10;;;12.30;99.90;;;;;;5033775;28;20044;-65
2022/01/01 12:25:52;;;;;;;23.42;11.02;;;12.30;99.90;;;;;;5044486;28;20051;-64
2022/01/01 12:28:31;;;;;;;18.52;9.13;;;12.30;99.90;;;;;;5050995;28;20179;-65
2022/01/01 12:31:10;;;;;;;17.73;8.45;;;12.30;99.90;;;;;;5049509;28;20056;-65
2022/01/01 12:33:39;;;;;;;21.15;8.93;;;12.30;99.90;;;;;;5080818;28;20040;-64
2022/01/01 12:36:15;;;;;;;17.58;8.52;;;12.30;99.90;;;;;;5073796;28;20410;-64